Time;durP1;ratioP1;P1;durP2;ratioP2;P2;SDS_P1;SDS_P2;PMS_P1;PMS_P2;Temp;Humidity;BMP_temperature;BMP_pressure;BME280_temperature;BME280_humidity;BME280_pressure;Samples;Min_cycle;Max_cycle;Signal;HPM_P1;HPM_P2
2023/07/27 00:00:13;;;;;;;12.20;10.80;;;;;;;24.51;70.01;98430.34;5071557;28;20192;-74
2023/07/27 00:02:40;;;;;;;13.03;11.83;;;;;;;24.52;69.91;98429.25;5072441;28;20207;-74
2023/07/27 00:05:09;;;;;;;11.97;11.03;;;;;;;24.62;69.69;98431.72;5072338;28;20223;-74
2023/07/27 00:07:35;;;;;;;12.27;11.27;;;;;;;24.52;69.83;98423.81;5072062;28;20248;-73
2023/07/27 00:10:02;;;;;;;12.13;10.93;;;;;;;24.49;70.02;98429.06;5071418;28;20188;-74
2023/07/27 00:12:29;;;;;;;11.50;10.43;;;;;;;24.40;70.70;98422.78;5072418;28;20260;-74
2023/07/27 00:14:55;;;;;;;10.83;10.03;;;;;;;24.43;71.25;98422.16;5071862;28;20202;-73
2023/07/27 00:17:22;;;;;;;10.70;9.83;;;;;;;24.41;71.14;98427.09;5072041;28;20670;-74
2023/07/27 00:19:49;;;;;;;10.83;9.83;;;;;;;24.41;70.31;98440.66;5072507;28;20246;-73
2023/07/27 00:22:17;;;;;;;10.60;9.80;;;;;;;24.33;70.54;98434.09;5071629;28;20217;-74
2023/07/27 00:24:44;;;;;;;11.30;10.10;;;;;;;24.44;70.26;98438.16;5071425;28;20273;-73
2023/07/27 00:27:10;;;;;;;9.90;8.93;;;;;;;24.58;68.86;98438.84;5072256;28;20253;-73
2023/07/27 00:29:37;;;;;;;9.73;9.00;;;;;;;24.44;69.72;98434.63;5072196;28;20199;-73
2023/07/27 00:32:04;;;;;;;9.30;8.50;;;;;;;24.46;68.85;98438.63;5071891;28;20192;-73
2023/07/27 00:34:31;;;;;;;9.27;8.40;;;;;;;24.54;68.60;98435.16;5070904;28;20249;-73
2023/07/27 00:36:57;;;;;;;9.20;8.40;;;;;;;24.43;69.25;98446.59;5072229;28;20187;-75
2023/07/27 00:39:25;;;;;;;10.17;8.63;;;;;;;24.25;69.36;98436.72;5072115;28;20257;-74
2023/07/27 00:41:52;;;;;;;9.47;8.67;;;;;;;24.26;68.75;98433.72;5071784;28;20558;-74
2023/07/27 00:44:19;;;;;;;9.17;8.47;;;;;;;24.16;69.36;98438.59;5071018;28;20199;-75
2023/07/27 00:46:46;;;;;;;9.17;8.47;;;;;;;24.10;69.61;98434.41;5071692;28;20280;-74
2023/07/27 00:49:13;;;;;;;7.70;7.20;;;;;;;24.06;70.31;98438.88;5072037;28;20572;-75
2023/07/27 00:51:43;;;;;;;8.40;7.80;;;;;;;24.03;70.05;98440.28;5071162;28;20249;-74
2023/07/27 00:54:11;;;;;;;8.93;8.20;;;;;;;23.98;70.18;98431.47;5072265;28;20267;-75
2023/07/27 00:56:39;;;;;;;9.00;8.20;;;;;;;23.96;70.83;98428.22;5075805;28;20235;-75
2023/07/27 00:59:07;;;;;;;8.87;7.67;;;;;;;24.00;70.48;98430.03;5076003;28;20195;-74
2023/07/27 01:01:34;;;;;;;9.57;7.60;;;;;;;24.02;70.99;98435.94;5075319;28;20194;-74
2023/07/27 01:04:01;;;;;;;8.90;8.13;;;;;;;24.02;70.22;98444.09;5075102;28;20662;-74
2023/07/27 01:06:29;;;;;;;10.73;7.43;;;;;;;24.10;70.07;98446.06;5075752;28;20272;-74
2023/07/27 01:08:56;;;;;;;8.87;8.07;;;;;;;24.04;70.50;98444.59;5075757;28;20195;-74
2023/07/27 01:11:32;;;;;;;8.23;7.43;;;;;;;23.94;70.78;98447.53;5075030;28;20199;-74
2023/07/27 01:14:08;;;;;;;7.73;7.23;;;;;;;23.86;71.14;98437.41;5075391;28;20186;-75
2023/07/27 01:16:41;;;;;;;8.60;8.00;;;;;;;23.93;70.52;98451.34;5075461;28;20728;-74
2023/07/27 01:19:27;;;;;;;8.23;7.43;;;;;;;23.85;70.18;98443.94;5075819;28;20249;-75
2023/07/27 01:22:05;;;;;;;8.33;7.70;;;;;;;23.79;70.56;98447.88;5074989;28;20191;-75
2023/07/27 01:25:03;;;;;;;8.20;7.53;;;;;;;23.83;69.83;98451.59;5073412;28;20243;-74
2023/07/27 01:27:47;;;;;;;7.70;7.10;;;;;;;23.76;70.02;98448.47;5074600;28;20260;-75
2023/07/27 01:30:51;;;;;;;7.97;7.47;;;;;;;23.72;70.25;98450.19;5072845;28;20210;-77
2023/07/27 01:33:25;;;;;;;8.37;7.67;;;;;;;23.79;70.02;98445.16;5068881;28;20599;-78
2023/07/27 01:36:01;;;;;;;7.77;7.07;;;;;;;23.77;69.57;98441.94;5074111;28;20231;-78
2023/07/27 01:38:30;;;;;;;7.30;6.70;;;;;;;23.74;69.73;98437.16;5074513;28;20312;-78
2023/07/27 01:40:58;;;;;;;7.37;6.73;;;;;;;23.73;69.69;98440.94;5075222;28;20199;-77
2023/07/27 01:43:26;;;;;;;9.77;7.73;;;;;;;23.75;69.34;98446.88;5075088;28;20191;-76
2023/07/27 01:45:54;;;;;;;8.03;6.93;;;;;;;23.71;69.23;98459.44;5074610;28;20700;-78
2023/07/27 01:48:25;;;;;;;7.00;6.50;;;;;;;23.76;69.19;98463.94;5073981;28;20194;-74
2023/07/27 01:50:52;;;;;;;7.87;7.37;;;;;;;23.68;69.21;98470.13;5074819;28;20190;-76
2023/07/27 01:53:21;;;;;;;6.80;6.20;;;;;;;23.68;69.40;98473.63;5074319;28;20746;-74
2023/07/27 01:55:49;;;;;;;7.37;6.77;;;;;;;23.59;69.37;98467.31;5074340;28;20260;-75
2023/07/27 01:58:17;;;;;;;7.70;7.00;;;;;;;23.63;69.43;98467.50;5073942;28;20194;-74
2023/07/27 02:00:44;;;;;;;7.40;6.40;;;;;;;23.61;69.05;98469.72;5074494;28;20199;-76
2023/07/27 02:03:11;;;;;;;7.13;6.57;;;;;;;23.55;69.51;98482.59;5073982;28;20195;-77
2023/07/27 02:05:39;;;;;;;7.27;6.60;;;;;;;23.52;69.70;98483.19;5073124;28;20227;-76
2023/07/27 02:08:06;;;;;;;7.93;6.37;;;;;;;23.52;69.44;98476.97;5073688;28;20189;-76
2023/07/27 02:10:33;;;;;;;8.80;7.43;;;;;;;23.43;69.64;98474.16;5074357;28;20202;-75
2023/07/27 02:13:06;;;;;;;7.20;6.57;;;;;;;23.42;69.70;98477.19;5074498;28;20203;-75
2023/07/27 02:15:38;;;;;;;7.37;6.47;;;;;;;23.42;69.88;98471.75;5074148;28;20254;-74
2023/07/27 02:18:09;;;;;;;7.17;6.47;;;;;;;23.44;69.67;98477.69;5072957;28;20240;-75
2023/07/27 02:20:38;;;;;;;7.13;6.63;;;;;;;23.40;69.87;98474.78;5073686;28;20649;-75
2023/07/27 02:23:07;;;;;;;6.57;6.13;;;;;;;23.45;70.05;98498.28;5074007;28;20247;-76
2023/07/27 02:25:35;;;;;;;7.40;6.47;;;;;;;23.33;69.93;98487.94;5072877;28;20763;-75
2023/07/27 02:28:02;;;;;;;7.23;6.63;;;;;;;23.29;70.30;98486.94;5061928;28;20204;-75
2023/07/27 02:30:29;;;;;;;7.07;6.47;;;;;;;23.19;70.66;98492.53;5073634;28;20189;-74
2023/07/27 02:32:56;;;;;;;7.07;6.47;;;;;;;23.25;70.81;98494.06;5073385;28;20198;-73
2023/07/27 02:35:22;;;;;;;7.93;7.13;;;;;;;23.26;70.64;98490.25;5072620;28;20290;-74
2023/07/27 02:37:49;;;;;;;7.77;7.17;;;;;;;23.12;70.76;98502.97;5073390;28;20673;-73
2023/07/27 02:40:17;;;;;;;7.27;6.87;;;;;;;23.06;71.17;98512.31;5073251;28;20198;-74
2023/07/27 02:42:44;;;;;;;8.53;6.93;;;;;;;23.08;71.36;98526.34;5073569;28;20190;-73
2023/07/27 02:45:11;;;;;;;7.80;7.03;;;;;;;23.08;71.48;98523.63;5072887;28;20197;-74
2023/07/27 02:47:38;;;;;;;7.13;6.63;;;;;;;23.17;71.23;98529.97;5073365;28;20196;-75
2023/07/27 02:50:06;;;;;;;8.20;7.50;;;;;;;23.14;71.22;98532.47;5072926;28;20623;-76
2023/07/27 02:52:33;;;;;;;8.27;7.53;;;;;;;23.08;71.77;98530.97;5073233;28;20250;-75
2023/07/27 02:54:59;;;;;;;7.97;7.37;;;;;;;23.10;71.54;98529.56;5073286;28;20197;-75
2023/07/27 02:57:28;;;;;;;7.80;7.17;;;;;;;23.06;71.82;98539.38;5072113;28;20205;-74
2023/07/27 02:59:55;;;;;;;7.67;7.27;;;;;;;22.98;72.09;98548.22;5072755;28;20550;-74
2023/07/27 03:02:21;;;;;;;7.97;7.40;;;;;;;22.99;72.42;98547.09;5073298;28;20190;-74
2023/07/27 03:04:48;;;;;;;8.13;7.53;;;;;;;23.01;72.47;98569.28;5073350;28;20268;-74
2023/07/27 03:07:15;;;;;;;8.50;7.83;;;;;;;23.00;72.57;98564.97;5072214;28;20278;-74
2023/07/27 03:09:41;;;;;;;8.10;7.40;;;;;;;22.96;72.68;98568.56;5072911;28;20243;-75
2023/07/27 03:12:08;;;;;;;8.90;8.03;;;;;;;23.06;72.67;98576.50;5072789;28;20248;-75
2023/07/27 03:14:36;;;;;;;7.83;7.30;;;;;;;23.10;72.46;98566.69;5073390;28;20195;-75
2023/07/27 03:17:04;;;;;;;7.73;7.23;;;;;;;22.81;72.85;98575.06;5071449;28;20197;-74
2023/07/27 03:19:30;;;;;;;7.90;7.23;;;;;;;22.88;72.47;98575.50;5071925;28;20197;-75
2023/07/27 03:21:57;;;;;;;9.63;7.47;;;;;;;23.01;71.97;98574.72;5072328;28;20190;-74
2023/07/27 03:24:23;;;;;;;7.73;7.00;;;;;;;22.85;70.90;98581.50;5072582;28;20620;-72
2023/07/27 03:26:50;;;;;;;7.93;6.77;;;;;;;22.72;71.21;98582.25;5072175;28;20270;-75
2023/07/27 03:29:17;;;;;;;7.90;7.17;;;;;;;22.70;70.63;98591.78;5072029;28;20607;-75
2023/07/27 03:31:45;;;;;;;7.20;6.60;;;;;;;22.58;69.68;98594.16;5072761;28;20661;-76
2023/07/27 03:34:12;;;;;;;5.80;5.50;;;;;;;22.76;68.98;98585.16;5072202;28;20722;-75
2023/07/27 03:36:38;;;;;;;6.13;5.73;;;;;;;22.77;67.62;98586.78;5072690;28;20597;-76
2023/07/27 03:39:05;;;;;;;6.83;6.33;;;;;;;22.68;68.05;98585.84;5072533;28;20257;-75
2023/07/27 03:41:32;;;;;;;5.73;5.03;;;;;;;22.69;67.39;98593.69;5072502;28;20254;-76
2023/07/27 03:43:58;;;;;;;5.20;4.70;;;;;;;22.72;66.72;98598.50;5071147;28;20223;-75
2023/07/27 03:46:25;;;;;;;5.50;5.20;;;;;;;22.75;66.47;98603.31;5071809;28;20592;-76
2023/07/27 03:48:54;;;;;;;5.77;5.30;;;;;;;22.70;66.32;98608.81;5071980;28;20242;-76
2023/07/27 03:51:20;;;;;;;8.97;4.60;;;;;;;22.75;65.06;98622.25;5072194;28;20197;-75
2023/07/27 03:53:47;;;;;;;5.53;4.40;;;;;;;22.64;65.32;98628.97;5070705;28;20252;-73
2023/07/27 03:56:14;;;;;;;4.43;4.03;;;;;;;22.62;65.29;98631.16;5072106;28;20204;-73
2023/07/27 03:58:41;;;;;;;6.27;3.70;;;;;;;22.61;64.75;98632.25;5071823;28;20254;-73
2023/07/27 04:01:07;;;;;;;3.83;3.53;;;;;;;22.67;63.88;98639.19;5071870;28;20249;-73
2023/07/27 04:03:34;;;;;;;6.70;3.60;;;;;;;22.70;62.87;98640.53;5070801;28;20190;-73
2023/07/27 04:06:03;;;;;;;3.30;3.03;;;;;;;22.62;62.29;98641.19;5067844;28;20268;-73
2023/07/27 04:08:29;;;;;;;10.10;3.73;;;;;;;22.63;62.11;98659.84;5052278;28;20257;-73
2023/07/27 04:10:56;;;;;;;3.27;3.07;;;;;;;22.65;62.01;98663.06;5051710;28;20247;-73
2023/07/27 04:13:23;;;;;;;6.13;3.87;;;;;;;22.61;62.40;98664.75;5063017;28;20744;-73
2023/07/27 04:15:49;;;;;;;5.40;3.20;;;;;;;22.44;62.14;98672.53;5071614;28;20621;-72
2023/07/27 04:18:16;;;;;;;3.40;3.03;;;;;;;22.46;62.31;98667.66;5071316;28;20188;-73
2023/07/27 04:20:43;;;;;;;14.65;4.20;;;;;;;22.42;62.29;98679.34;5070869;28;20425;-73
2023/07/27 04:23:11;;;;;;;12.23;3.80;;;;;;;22.48;62.00;98684.44;5070946;28;20197;-73
2023/07/27 04:25:37;;;;;;;3.60;3.40;;;;;;;22.46;62.10;98681.19;5071440;28;20250;-73
2023/07/27 04:28:04;;;;;;;3.40;3.10;;;;;;;22.52;61.68;98688.16;5071873;28;20238;-75
2023/07/27 04:30:31;;;;;;;3.67;3.37;;;;;;;22.58;61.66;98694.31;5071080;28;20197;-76
2023/07/27 04:32:58;;;;;;;9.77;3.87;;;;;;;22.75;60.69;98700.78;5070782;28;20188;-75
2023/07/27 04:35:24;;;;;;;5.37;3.33;;;;;;;23.07;59.77;98714.38;5071763;28;20233;-75
2023/07/27 04:37:51;;;;;;;9.03;3.80;;;;;;;22.88;60.62;98700.06;5071018;28;20200;-74
2023/07/27 04:40:19;;;;;;;4.07;3.50;;;;;;;22.89;60.64;98701.69;5071503;28;20254;-75
2023/07/27 04:42:46;;;;;;;7.33;3.93;;;;;;;22.68;60.99;98705.78;5070783;28;20188;-75
2023/07/27 04:45:13;;;;;;;11.40;3.73;;;;;;;22.50;62.07;98706.56;5071500;28;20669;-76
2023/07/27 04:47:40;;;;;;;5.27;3.87;;;;;;;22.55;61.74;98711.13;5071229;28;20227;-75
2023/07/27 04:50:07;;;;;;;4.00;3.63;;;;;;;22.62;61.58;98711.56;5071534;28;20189;-76
2023/07/27 04:52:34;;;;;;;9.83;4.13;;;;;;;22.58;61.64;98716.75;5070445;28;20195;-75
2023/07/27 04:55:01;;;;;;;9.07;4.90;;;;;;;22.67;61.32;98717.69;5071155;28;20193;-74
2023/07/27 04:57:29;;;;;;;7.63;4.70;;;;;;;22.54;61.93;98714.94;5071176;28;20626;-74
2023/07/27 04:59:55;;;;;;;7.43;4.80;;;;;;;22.71;61.60;98721.44;5071179;28;20257;-76
2023/07/27 05:02:22;;;;;;;8.17;4.50;;;;;;;22.66;61.86;98721.50;5070585;28;20192;-76
2023/07/27 05:04:50;;;;;;;4.87;4.47;;;;;;;22.67;61.35;98720.41;5069851;28;20250;-76
2023/07/27 05:07:17;;;;;;;17.13;5.03;;;;;;;22.89;61.35;98720.63;5069647;28;20270;-69
2023/07/27 05:09:44;;;;;;;11.83;4.87;;;;;;;23.14;59.70;98733.78;5071040;28;20246;-68
2023/07/27 05:12:10;;;;;;;9.87;4.93;;;;;;;23.33;58.80;98737.31;5070160;28;20198;-69
2023/07/27 05:14:38;;;;;;;4.80;4.50;;;;;;;23.35;58.68;98758.66;5070583;28;20229;-67
2023/07/27 05:17:05;;;;;;;9.60;4.73;;;;;;;23.62;57.42;98753.34;5070672;28;20255;-67
2023/07/27 05:19:32;;;;;;;6.20;4.67;;;;;;;23.55;57.02;98769.16;5070512;28;20190;-67
2023/07/27 05:21:59;;;;;;;11.43;4.33;;;;;;;23.79;57.05;98754.38;5070185;28;20198;-68
2023/07/27 05:24:25;;;;;;;12.60;4.30;;;;;;;23.72;56.09;98745.81;5070440;28;20742;-66
2023/07/27 05:26:52;;;;;;;6.10;4.53;;;;;;;23.74;56.09;98762.59;5067861;28;20281;-67
2023/07/27 05:29:19;;;;;;;10.43;4.50;;;;;;;23.92;55.49;98769.88;5070469;28;20259;-68
2023/07/27 05:31:47;;;;;;;4.10;3.90;;;;;;;23.69;55.17;98770.03;5070800;28;20254;-68
2023/07/27 05:34:14;;;;;;;9.80;4.43;;;;;;;23.86;56.24;98787.34;5070410;28;20653;-69
2023/07/27 05:36:41;;;;;;;10.13;4.80;;;;;;;23.76;54.84;98771.25;5069464;28;20296;-70
2023/07/27 05:39:08;;;;;;;7.67;4.33;;;;;;;24.19;52.98;98791.63;5067557;28;20202;-70
2023/07/27 05:41:35;;;;;;;10.80;4.20;;;;;;;24.19;53.15;98786.22;5068788;28;20201;-70
2023/07/27 05:44:01;;;;;;;5.37;4.40;;;;;;;24.53;52.00;98792.03;5072460;28;20679;-69
2023/07/27 05:46:28;;;;;;;7.37;4.60;;;;;;;24.46;51.71;98801.69;5073269;28;20219;-69
2023/07/27 05:48:56;;;;;;;11.43;4.63;;;;;;;24.76;51.09;98804.59;5073947;28;20237;-69
2023/07/27 05:51:23;;;;;;;9.53;4.20;;;;;;;24.88;50.63;98810.28;5073527;28;20199;-68
2023/07/27 05:53:51;;;;;;;11.03;3.83;;;;;;;25.06;49.72;98815.91;5074202;28;20199;-63
2023/07/27 05:56:18;;;;;;;8.60;4.07;;;;;;;25.40;48.57;98810.78;5073440;28;20203;-64
2023/07/27 05:58:45;;;;;;;6.80;4.00;;;;;;;25.15;49.54;98803.19;5073247;28;20195;-62
2023/07/27 06:01:11;;;;;;;14.77;4.50;;;;;;;24.66;50.15;98796.66;5074153;28;20637;-64
2023/07/27 06:03:38;;;;;;;10.87;4.40;;;;;;;25.03;49.25;98804.53;5074154;28;20277;-63
2023/07/27 06:06:07;;;;;;;9.27;4.07;;;;;;;24.59;49.97;98792.72;5073467;28;20252;-64
2023/07/27 06:08:34;;;;;;;10.57;4.50;;;;;;;24.70;50.33;98797.66;5073046;28;20222;-63
2023/07/27 06:11:06;;;;;;;6.73;3.77;;;;;;;24.53;50.60;98802.88;5074219;28;20566;-62
2023/07/27 06:13:33;;;;;;;7.73;4.33;;;;;;;24.51;50.73;98804.28;5073468;28;20222;-63
2023/07/27 06:16:00;;;;;;;11.97;3.80;;;;;;;25.10;49.11;98816.91;5071939;28;20199;-63
2023/07/27 06:18:27;;;;;;;7.57;3.87;;;;;;;25.32;48.68;98825.13;5062642;28;20641;-62
2023/07/27 06:20:54;;;;;;;6.43;4.03;;;;;;;25.07;49.02;98812.88;5072717;28;20204;-63
2023/07/27 06:23:22;;;;;;;8.37;4.00;;;;;;;24.68;49.91;98810.75;5068566;28;20214;-68
2023/07/27 06:25:49;;;;;;;11.00;3.40;;;;;;;24.83;49.56;98807.69;5071930;28;20204;-64
2023/07/27 06:28:16;;;;;;;26.67;4.73;;;;;;;24.85;49.60;98813.63;5072537;28;20226;-62
2023/07/27 06:30:43;;;;;;;12.17;3.80;;;;;;;24.80;49.27;98796.63;5073614;28;20272;-63
2023/07/27 06:33:10;;;;;;;9.43;3.80;;;;;;;25.18;48.77;98813.47;5073173;28;20212;-64
2023/07/27 06:35:37;;;;;;;7.80;3.20;;;;;;;25.27;47.69;98814.34;5071771;28;20699;-67
2023/07/27 06:38:03;;;;;;;9.53;3.60;;;;;;;25.49;46.45;98820.63;5071539;28;20243;-67
2023/07/27 06:40:31;;;;;;;22.57;3.77;;;;;;;24.98;46.81;98824.78;5072503;28;20276;-70
2023/07/27 06:42:58;;;;;;;7.83;3.40;;;;;;;24.76;47.82;98822.81;5071578;28;20199;-66
2023/07/27 06:45:25;;;;;;;6.77;3.10;;;;;;;24.89;47.78;98827.41;5071981;28;20196;-66
2023/07/27 06:47:51;;;;;;;21.37;4.30;;;;;;;24.98;46.47;98822.06;5072776;28;20253;-68
2023/07/27 06:50:18;;;;;;;9.70;3.00;;;;;;;25.22;46.34;98825.28;5073103;28;20203;-66
2023/07/27 06:52:45;;;;;;;6.03;3.70;;;;;;;25.60;45.01;98818.44;5071710;28;20213;-66
2023/07/27 06:55:12;;;;;;;12.20;3.60;;;;;;;25.25;45.92;98819.25;5073008;28;20261;-68
2023/07/27 06:57:40;;;;;;;13.90;3.10;;;;;;;25.60;44.92;98800.19;5072664;28;20200;-66
2023/07/27 07:00:08;;;;;;;4.33;2.57;;;;;;;25.49;44.60;98819.81;5072601;28;20271;-68
2023/07/27 07:02:35;;;;;;;5.00;2.93;;;;;;;25.30;45.26;98789.25;5072553;28;20192;-66
2023/07/27 07:05:02;;;;;;;19.63;3.50;;;;;;;25.43;44.80;98808.25;5071731;28;20206;-69
2023/07/27 07:07:29;;;;;;;9.40;3.30;;;;;;;25.86;43.60;98811.25;5072353;28;20212;-68
2023/07/27 07:09:56;;;;;;;17.83;3.57;;;;;;;26.11;41.86;98816.06;5072376;28;20663;-71
2023/07/27 07:12:23;;;;;;;20.17;3.87;;;;;;;26.14;41.14;98815.44;5071652;28;20249;-69
2023/07/27 07:14:51;;;;;;;8.87;2.87;;;;;;;26.55;40.66;98805.00;5071836;28;20196;-68
2023/07/27 07:17:18;;;;;;;7.43;2.70;;;;;;;26.82;39.93;98812.97;5069876;28;20752;-69
2023/07/27 07:19:45;;;;;;;7.00;2.23;;;;;;;26.91;40.24;98813.78;5072396;28;20192;-67
2023/07/27 07:22:12;;;;;;;6.37;2.40;;;;;;;27.28;39.91;98824.13;5071428;28;20675;-69
2023/07/27 07:24:38;;;;;;;27.27;3.93;;;;;;;27.57;38.21;98818.81;5064847;28;20253;-67
2023/07/27 07:27:05;;;;;;;10.10;3.00;;;;;;;27.32;37.91;98819.63;5066734;28;20219;-70
2023/07/27 07:29:32;;;;;;;6.93;2.60;;;;;;;27.47;38.30;98806.28;5070982;28;20254;-68
2023/07/27 07:32:00;;;;;;;21.13;3.13;;;;;;;27.47;36.97;98800.00;5062969;28;20200;-66
2023/07/27 07:34:27;;;;;;;4.23;2.10;;;;;;;27.44;36.95;98806.13;5063617;28;20253;-67
2023/07/27 07:36:53;;;;;;;17.80;2.90;;;;;;;27.13;37.34;98806.28;5071296;28;20245;-65
2023/07/27 07:39:20;;;;;;;8.47;2.40;;;;;;;27.58;36.76;98806.75;5071755;28;20249;-64
2023/07/27 07:41:47;;;;;;;15.43;2.80;;;;;;;27.41;37.36;98814.97;5071340;28;20706;-65
2023/07/27 07:44:13;;;;;;;12.73;2.37;;;;;;;27.64;36.58;98810.94;5072145;28;20250;-65
2023/07/27 07:46:40;;;;;;;18.63;3.63;;;;;;;27.24;36.96;98804.84;5071534;28;20192;-66
2023/07/27 07:49:08;;;;;;;10.87;2.07;;;;;;;27.27;36.53;98822.50;5071829;28;20223;-65
2023/07/27 07:51:35;;;;;;;7.90;2.30;;;;;;;27.22;36.78;98825.38;5071256;28;20663;-65
2023/07/27 07:54:02;;;;;;;9.37;2.23;;;;;;;26.82;37.27;98826.59;5071976;28;20192;-68
2023/07/27 07:56:29;;;;;;;9.90;2.37;;;;;;;26.06;38.49;98814.28;5071749;28;20200;-65
2023/07/27 07:58:55;;;;;;;14.20;2.30;;;;;;;25.76;39.19;98822.41;5071250;28;20672;-67
2023/07/27 08:01:22;;;;;;;14.73;3.13;;;;;;;26.06;38.02;98840.69;5070566;28;20204;-65
2023/07/27 08:03:49;;;;;;;15.43;2.63;;;;;;;25.75;38.06;98839.81;5070538;28;20210;-67
2023/07/27 08:06:17;;;;;;;10.93;2.90;;;;;;;25.36;38.86;98842.41;5071363;28;20734;-65
2023/07/27 08:08:44;;;;;;;21.57;2.80;;;;;;;24.94;39.43;98825.38;5071715;28;20295;-67
2023/07/27 08:11:11;;;;;;;15.50;2.70;;;;;;;24.73;39.94;98845.13;5070207;28;20199;-66
2023/07/27 08:13:38;;;;;;;10.47;2.43;;;;;;;24.74;39.40;98828.53;5067987;28;20260;-67
2023/07/27 08:16:05;;;;;;;6.60;2.70;;;;;;;24.45;39.81;98794.63;5071309;28;20207;-68
2023/07/27 08:18:32;;;;;;;9.83;2.97;;;;;;;25.02;39.69;98852.97;5071566;28;20210;-67
2023/07/27 08:21:01;;;;;;;6.43;1.97;;;;;;;24.87;40.07;98852.16;5071599;28;20229;-69
2023/07/27 08:23:29;;;;;;;16.10;4.10;;;;;;;24.61;40.64;98870.09;5070946;28;20199;-66
2023/07/27 08:25:56;;;;;;;6.53;3.53;;;;;;;24.68;41.76;98875.94;5076754;28;20264;-69
2023/07/27 08:28:23;;;;;;;11.33;3.17;;;;;;;24.75;41.06;98880.97;5069396;28;20777;-69
2023/07/27 08:30:50;;;;;;;7.83;3.43;;;;;;;24.55;40.41;98871.25;5067974;28;20199;-67
2023/07/27 08:33:17;;;;;;;6.40;2.67;;;;;;;24.90;39.42;98870.59;5070448;28;20199;-67
2023/07/27 08:35:44;;;;;;;7.10;2.70;;;;;;;24.62;39.55;98855.41;5070634;28;20226;-70
2023/07/27 08:38:11;;;;;;;6.57;3.00;;;;;;;24.51;40.37;98859.41;5071122;28;20210;-67
2023/07/27 08:40:39;;;;;;;9.40;3.00;;;;;;;24.57;39.25;98852.78;5060186;28;20557;-69
2023/07/27 08:43:08;;;;;;;9.50;2.70;;;;;;;24.24;39.46;98869.44;5069522;28;20210;-69
2023/07/27 08:45:35;;;;;;;3.60;2.27;;;;;;;24.19;40.19;98867.63;5070717;28;20203;-70
2023/07/27 08:48:04;;;;;;;19.70;3.03;;;;;;;23.94;40.44;98868.06;5069039;28;20767;-68
2023/07/27 08:50:35;;;;;;;4.70;2.23;;;;;;;23.87;41.04;98874.94;5070845;28;20558;-68
2023/07/27 08:53:03;;;;;;;14.73;2.97;;;;;;;24.01;41.06;98871.19;5071374;28;20187;-67
2023/07/27 08:55:29;;;;;;;14.40;2.87;;;;;;;23.92;41.32;98872.16;5069634;28;20192;-68
2023/07/27 08:57:57;;;;;;;6.40;2.50;;;;;;;23.41;42.29;98872.16;5069741;28;20275;-69
2023/07/27 09:00:26;;;;;;;8.77;2.50;;;;;;;23.30;43.65;98873.41;5070842;28;20194;-69
2023/07/27 09:02:52;;;;;;;10.00;3.03;;;;;;;23.12;45.97;98879.56;5070826;28;20305;-66
2023/07/27 09:05:20;;;;;;;6.30;2.40;;;;;;;22.93;46.64;98867.94;5070607;28;20205;-67
2023/07/27 09:07:49;;;;;;;3.63;2.77;;;;;;;22.75;48.28;98863.28;5070255;28;20313;-67
2023/07/27 09:10:18;;;;;;;4.60;2.40;;;;;;;22.82;48.39;98852.91;5071356;28;20201;-68
2023/07/27 09:12:44;;;;;;;2.23;2.03;;;;;;;22.72;47.94;98850.34;5069978;28;20643;-67
2023/07/27 09:15:16;;;;;;;2.43;2.33;;;;;;;22.69;48.05;98845.50;5071273;28;21013;-67
2023/07/27 09:17:43;;;;;;;3.03;2.40;;;;;;;22.86;47.51;98843.09;5074480;28;20208;-67
2023/07/27 09:20:11;;;;;;;3.27;2.10;;;;;;;23.01;46.26;98840.19;5075234;28;20198;-66
2023/07/27 09:22:38;;;;;;;5.87;2.40;;;;;;;23.08;45.02;98846.03;5074863;28;20193;-67
2023/07/27 09:25:06;;;;;;;15.67;2.53;;;;;;;23.78;42.92;98860.44;5074407;28;20191;-71
2023/07/27 09:27:42;;;;;;;4.77;2.43;;;;;;;24.67;41.79;98876.25;5073604;28;20267;-70
2023/07/27 09:30:11;;;;;;;3.20;2.03;;;;;;;25.06;39.96;98881.16;5075197;28;20225;-74
2023/07/27 09:32:40;;;;;;;11.53;2.10;;;;;;;25.22;36.81;98875.06;5073308;28;20280;-73
2023/07/27 09:35:12;;;;;;;4.57;2.10;;;;;;;24.91;38.07;98888.50;5072741;28;20235;-71
2023/07/27 09:37:43;;;;;;;1.60;1.50;;;;;;;25.06;37.37;98883.84;5061097;28;20203;-74
2023/07/27 09:40:14;;;;;;;1.97;1.63;;;;;;;25.65;36.47;98902.66;5073800;28;20761;-76
2023/07/27 09:42:42;;;;;;;6.90;2.00;;;;;;;25.81;35.94;98895.75;5073001;28;20219;-78
2023/07/27 09:45:09;;;;;;;4.37;1.77;;;;;;;26.68;34.30;98905.75;5072647;28;20204;-77
2023/07/27 09:47:36;;;;;;;4.50;1.60;;;;;;;27.16;32.78;98898.34;5073837;28;20613;-78
2023/07/27 09:50:06;;;;;;;1.30;1.20;;;;;;;27.55;32.81;98873.69;5072756;28;20544;-72
2023/07/27 09:52:34;;;;;;;4.53;1.40;;;;;;;27.97;31.09;98869.38;5073392;28;20192;-74
2023/07/27 09:55:01;;;;;;;6.00;1.50;;;;;;;28.19;30.59;98867.22;5073648;28;20207;-76
2023/07/27 09:57:29;;;;;;;1.43;1.33;;;;;;;28.61;30.44;98862.72;5074057;28;20620;-75
2023/07/27 09:59:55;;;;;;;1.33;1.10;;;;;;;28.71;29.72;98848.72;5073339;28;20191;-73
2023/07/27 10:02:23;;;;;;;3.47;1.53;;;;;;;28.82;29.74;98856.19;5070399;28;20246;-72
2023/07/27 10:04:50;;;;;;;3.47;1.53;;;;;;;29.42;29.11;98850.34;5071567;28;20246;-74
2023/07/27 10:07:19;;;;;;;6.93;1.63;;;;;;;29.18;28.22;98844.72;5072418;28;20276;-76
2023/07/27 10:09:46;;;;;;;4.60;1.57;;;;;;;29.29;28.73;98840.47;5074006;28;20695;-77
2023/07/27 10:12:27;;;;;;;5.20;1.07;;;;;;;29.63;28.45;98823.78;5072859;28;20196;-74
2023/07/27 10:15:21;;;;;;;3.27;1.20;;;;;;;30.12;29.52;98821.97;5073213;28;20270;-72
2023/07/27 10:17:51;;;;;;;16.70;1.90;;;;;;;30.04;27.06;98812.72;5073478;28;20681;-73
2023/07/27 10:20:22;;;;;;;14.80;2.20;;;;;;;29.72;27.71;98821.75;5072532;28;20729;-74
2023/07/27 10:22:53;;;;;;;3.33;1.20;;;;;;;29.97;27.19;98806.19;5072947;28;20196;-76
2023/07/27 10:25:20;;;;;;;4.63;1.40;;;;;;;30.47;27.21;98826.75;5072197;28;20277;-77
2023/07/27 10:27:57;;;;;;;2.73;1.10;;;;;;;30.07;27.06;98809.31;5071979;28;20193;-72
2023/07/27 10:30:24;;;;;;;16.30;2.83;;;;;;;29.36;27.68;98807.91;5073645;28;20196;-73
2023/07/27 10:33:15;;;;;;;5.20;1.50;;;;;;;29.78;27.27;98805.91;5073458;28;20196;-72
2023/07/27 10:36:01;;;;;;;3.53;1.60;;;;;;;29.69;28.16;98803.28;5072949;28;20231;-76
2023/07/27 10:38:32;;;;;;;27.17;3.20;;;;;;;30.14;27.94;98806.03;5072269;28;20207;-74
2023/07/27 10:41:12;;;;;;;9.20;1.87;;;;;;;29.98;26.68;98796.84;5071632;28;20647;-74
2023/07/27 10:43:38;;;;;;;4.93;3.10;;;;;;;30.24;26.83;98800.91;5071726;28;20180;-71
2023/07/27 10:46:22;;;;;;;13.20;7.53;;;;;;;29.94;26.16;98802.22;5073275;28;20203;-78
2023/07/27 10:48:58;;;;;;;9.95;4.53;;;;;;;29.90;26.77;98809.50;5071849;28;20458;-79
2023/07/27 10:51:25;;;;;;;11.05;3.00;;;;;;;29.89;25.65;98809.84;5073209;28;20444;-74
2023/07/27 10:53:54;;;;;;;5.30;1.60;;;;;;;29.93;26.72;98795.09;5071694;28;20195;-76
2023/07/27 10:56:21;;;;;;;4.40;1.20;;;;;;;29.86;25.35;98803.09;5072988;28;20198;-73
2023/07/27 10:58:49;;;;;;;3.67;1.37;;;;;;;30.22;27.82;98805.13;5072859;28;20733;-71
2023/07/27 11:01:16;;;;;;;33.23;4.33;;;;;;;30.15;26.18;98792.00;5071827;28;20210;-71
2023/07/27 11:03:45;;;;;;;10.77;1.50;;;;;;;30.31;25.54;98792.94;5072444;28;20190;-72
2023/07/27 11:06:12;;;;;;;3.40;1.37;;;;;;;30.56;26.85;98799.19;5072633;28;20196;-73
2023/07/27 11:08:40;;;;;;;15.50;2.33;;;;;;;30.39;25.18;98788.47;5069709;28;20302;-72
2023/07/27 11:11:19;;;;;;;8.10;1.90;;;;;;;30.52;29.63;98798.28;5072330;28;20825;-71
2023/07/27 11:13:46;;;;;;;2.60;1.10;;;;;;;30.61;25.55;98799.78;5072546;28;20192;-73
2023/07/27 11:16:13;;;;;;;3.77;1.63;;;;;;;30.22;26.51;98794.16;5072519;28;20265;-70
2023/07/27 11:18:40;;;;;;;2.10;1.53;;;;;;;30.49;27.93;98791.53;5072776;28;20196;-71
2023/07/27 11:21:08;;;;;;;1.73;1.60;;;;;;;30.74;27.14;98809.63;5072714;28;20188;-68
2023/07/27 11:23:41;;;;;;;3.60;1.97;;;;;;;30.58;24.86;98805.94;5072690;28;20219;-71
2023/07/27 11:26:10;;;;;;;7.97;1.30;;;;;;;30.21;26.22;98796.09;5071078;28;20192;-73
2023/07/27 11:28:40;;;;;;;7.77;1.70;;;;;;;30.25;26.29;98813.47;5104252;28;20220;-73
2023/07/27 11:31:07;;;;;;;2.50;1.20;;;;;;;30.19;27.10;98812.09;5072253;28;20278;-73
2023/07/27 11:33:34;;;;;;;4.03;1.30;;;;;;;30.12;28.26;98800.03;5072499;28;20199;-71
2023/07/27 11:36:01;;;;;;;2.60;1.10;;;;;;;29.87;26.29;98798.41;5071540;28;20760;-74